Time;durP1;ratioP1;P1;durP2;ratioP2;P2;SDS_P1;SDS_P2;PMS_P1;PMS_P2;Temp;Humidity;BMP_temperature;BMP_pressure;BME280_temperature;BME280_humidity;BME280_pressure;Samples;Min_cycle;Max_cycle;Signal;HPM_P1;HPM_P2
2021/07/25 00:02:03;;;;;;;10.65;4.25;;;;;;;17.80;82.72;95766.84;5114469;28;20525;-74
2021/07/25 00:04:31;;;;;;;11.90;3.80;;;;;;;17.74;81.83;95766.38;5114819;28;20044;-75
2021/07/25 00:06:58;;;;;;;7.68;3.80;;;;;;;17.70;82.08;95764.75;5112546;28;20059;-75
2021/07/25 00:09:24;;;;;;;9.13;4.80;;;;;;;17.69;82.12;95757.66;5114005;28;20047;-75
2021/07/25 00:11:51;;;;;;;12.73;4.43;;;;;;;17.71;81.98;95766.34;5114499;28;20054;-75
2021/07/25 00:14:17;;;;;;;9.38;4.80;;;;;;;17.71;82.10;95761.63;5113689;28;20047;-74
2021/07/25 00:16:44;;;;;;;10.82;4.15;;;;;;;17.72;82.11;95754.16;5114734;28;20036;-75
2021/07/25 00:19:12;;;;;;;7.55;3.83;;;;;;;17.69;82.46;95757.66;5114145;28;20040;-74
2021/07/25 00:21:40;;;;;;;8.27;4.50;;;;;;;17.69;81.85;95754.88;5114554;28;20056;-75
2021/07/25 00:24:06;;;;;;;10.38;4.63;;;;;;;17.67;81.56;95748.97;5114120;28;20097;-74
2021/07/25 00:26:37;;;;;;;10.43;4.53;;;;;;;17.65;81.53;95748.59;5113890;28;20055;-75
2021/07/25 00:29:04;;;;;;;8.27;4.03;;;;;;;17.64;82.07;95744.22;5112730;28;20069;-75
2021/07/25 00:31:30;;;;;;;7.30;3.58;;;;;;;17.68;81.85;95747.81;5113283;28;20054;-74
2021/07/25 00:33:57;;;;;;;6.93;3.97;;;;;;;17.63;81.67;95742.66;5113089;28;20051;-73
2021/07/25 00:36:24;;;;;;;11.10;4.88;;;;;;;17.65;81.91;95737.56;5112048;28;20100;-75
2021/07/25 00:38:51;;;;;;;6.97;4.80;;;;;;;17.66;81.46;95737.19;5111172;28;20039;-72
2021/07/25 00:41:19;;;;;;;6.22;3.83;;;;;;;17.65;81.78;95729.31;5112510;28;20043;-72
2021/07/25 00:43:47;;;;;;;10.23;4.25;;;;;;;17.64;81.59;95727.69;5112578;28;20039;-73
2021/07/25 00:46:14;;;;;;;10.95;4.63;;;;;;;17.65;81.37;95723.81;5112218;28;20414;-74
2021/07/25 00:48:41;;;;;;;6.60;3.85;;;;;;;17.65;81.84;95712.78;5112840;28;20039;-73
2021/07/25 00:51:08;;;;;;;9.70;4.47;;;;;;;17.64;81.50;95716.69;5112113;28;20054;-72
2021/07/25 00:53:36;;;;;;;11.07;4.80;;;;;;;17.60;81.91;95711.16;5112768;28;20043;-73
2021/07/25 00:56:08;;;;;;;9.20;4.38;;;;;;;17.56;82.11;95715.06;5111661;28;20052;-73
2021/07/25 00:58:36;;;;;;;9.30;4.15;;;;;;;17.56;81.55;95731.56;5112577;28;20039;-73
2021/07/25 01:01:03;;;;;;;10.60;4.18;;;;;;;17.55;81.25;95732.75;5112332;28;20044;-74
2021/07/25 01:03:37;;;;;;;8.73;4.35;;;;;;;17.52;81.01;95719.72;5112005;28;20047;-72
2021/07/25 01:06:15;;;;;;;7.70;4.13;;;;;;;17.53;81.43;95722.09;5111669;28;20047;-73
2021/07/25 01:08:46;;;;;;;8.20;3.88;;;;;;;17.48;81.88;95706.72;5112440;28;20485;-73
2021/07/25 01:11:14;;;;;;;8.80;4.60;;;;;;;17.51;81.47;95712.66;5112110;28;20043;-73
2021/07/25 01:13:43;;;;;;;11.30;4.60;;;;;;;17.48;81.12;95725.97;5112219;28;20047;-75
2021/07/25 01:16:10;;;;;;;9.18;4.40;;;;;;;17.45;81.01;95740.50;5111810;28;20405;-72
2021/07/25 01:18:46;;;;;;;13.95;4.85;;;;;;;17.32;81.81;95738.38;5112305;28;20130;-73
2021/07/25 01:21:16;;;;;;;11.68;4.20;;;;;;;17.29;82.25;95700.63;5112056;28;20040;-73
2021/07/25 01:23:43;;;;;;;8.25;4.18;;;;;;;17.27;82.81;95689.97;5112218;28;20040;-72
2021/07/25 01:26:12;;;;;;;11.35;4.55;;;;;;;17.26;82.91;95701.38;5073226;28;1093580;-72
2021/07/25 01:28:43;;;;;;;9.10;4.40;;;;;;;17.31;83.10;95712.81;5113410;28;20039;-73
2021/07/25 01:31:15;;;;;;;11.15;4.40;;;;;;;17.32;82.60;95711.66;5112651;28;20078;-75
2021/07/25 01:33:43;;;;;;;7.40;4.28;;;;;;;17.29;83.04;95690.41;5112879;28;20489;-73
2021/07/25 01:36:12;;;;;;;8.80;4.53;;;;;;;17.28;83.07;95688.84;5112125;28;20092;-73
2021/07/25 01:38:39;;;;;;;10.63;4.88;;;;;;;17.30;83.46;95685.69;5113167;28;20067;-73
2021/07/25 01:41:08;;;;;;;8.63;5.45;;;;;;;17.34;83.73;95692.81;5112302;28;20048;-72
2021/07/25 01:43:36;;;;;;;8.23;4.32;;;;;;;17.34;83.53;95681.81;5113113;28;20044;-73
2021/07/25 01:46:03;;;;;;;7.45;4.10;;;;;;;17.37;83.36;95697.56;5112401;28;20054;-73
2021/07/25 01:48:29;;;;;;;9.52;4.28;;;;;;;17.40;83.47;95691.31;5112670;28;20052;-73
2021/07/25 01:50:56;;;;;;;7.68;4.30;;;;;;;17.38;83.25;95696.41;5112618;28;20405;-73
2021/07/25 01:53:22;;;;;;;11.88;4.68;;;;;;;17.37;82.67;95694.81;5112282;28;20437;-73
2021/07/25 01:55:50;;;;;;;8.50;4.38;;;;;;;17.36;82.90;95684.97;5111953;28;20533;-73
2021/07/25 01:58:16;;;;;;;7.32;4.45;;;;;;;17.36;82.99;95671.22;5112126;28;20070;-73
2021/07/25 02:00:43;;;;;;;7.32;4.53;;;;;;;17.38;82.94;95668.88;5112661;28;20177;-73
2021/07/25 02:03:09;;;;;;;11.10;4.57;;;;;;;17.37;82.71;95692.06;5111823;28;20054;-73
2021/07/25 02:05:37;;;;;;;11.18;4.40;;;;;;;17.38;82.40;95679.91;5112140;28;20051;-73
2021/07/25 02:08:04;;;;;;;15.68;4.60;;;;;;;17.41;82.49;95687.38;5111901;28;20532;-73
2021/07/25 02:10:31;;;;;;;10.52;4.57;;;;;;;17.43;81.58;95690.53;5112511;28;20051;-73
2021/07/25 02:12:59;;;;;;;10.18;4.28;;;;;;;17.45;81.38;95693.72;5112198;28;20456;-73
2021/07/25 02:15:25;;;;;;;12.52;4.45;;;;;;;17.45;81.30;95696.47;5111025;28;20051;-73
2021/07/25 02:17:52;;;;;;;16.10;4.82;;;;;;;17.45;81.44;95704.72;5112077;28;20512;-73
2021/07/25 02:20:18;;;;;;;9.68;4.65;;;;;;;17.47;81.75;95707.09;5111609;28;20047;-73
2021/07/25 02:22:45;;;;;;;16.40;4.90;;;;;;;17.47;81.91;95705.13;5112245;28;20040;-73
2021/07/25 02:25:12;;;;;;;12.32;4.78;;;;;;;17.52;80.42;95716.97;5111767;28;20048;-73
2021/07/25 02:27:39;;;;;;;10.25;4.60;;;;;;;17.52;80.60;95728.78;5112130;28;20044;-73
2021/07/25 02:30:08;;;;;;;10.85;4.40;;;;;;;17.55;81.03;95730.00;5111542;28;20047;-73
2021/07/25 02:32:35;;;;;;;7.32;4.03;;;;;;;17.56;81.27;95737.88;5110828;28;20047;-73
2021/07/25 02:35:01;;;;;;;11.48;4.75;;;;;;;17.62;81.25;95732.81;5111649;28;20051;-73
2021/07/25 02:37:28;;;;;;;12.40;4.50;;;;;;;17.64;80.52;95727.69;5091605;28;20032;-73
2021/07/25 02:39:54;;;;;;;10.60;4.60;;;;;;;17.65;79.93;95723.81;5091750;28;20047;-73
2021/07/25 02:42:21;;;;;;;8.50;4.32;;;;;;;17.65;80.67;95713.56;5091125;28;20054;-73
2021/07/25 02:44:47;;;;;;;9.77;4.30;;;;;;;17.68;80.89;95717.53;5096092;28;20704;-73
2021/07/25 02:47:15;;;;;;;9.50;4.68;;;;;;;17.67;81.17;95718.69;5110930;28;20043;-73
2021/07/25 02:49:41;;;;;;;12.60;4.63;;;;;;;17.65;81.54;95713.56;5111795;28;20044;-73
2021/07/25 02:52:08;;;;;;;14.32;5.30;;;;;;;17.63;81.88;95721.41;5111057;28;20059;-73
2021/07/25 02:54:35;;;;;;;9.13;4.40;;;;;;;17.60;81.72;95729.66;5111292;28;20054;-73
2021/07/25 02:57:01;;;;;;;8.40;4.70;;;;;;;17.60;81.72;95721.41;5111625;28;20418;-73
2021/07/25 02:59:28;;;;;;;13.23;5.20;;;;;;;17.66;81.64;95717.13;5111302;28;20039;-72
2021/07/25 03:01:55;;;;;;;10.75;5.05;;;;;;;17.70;81.39;95731.72;5111425;28;20047;-73
2021/07/25 03:04:22;;;;;;;9.88;4.05;;;;;;;17.67;81.33;95751.75;5110872;28;20058;-73
2021/07/25 03:06:49;;;;;;;10.45;4.70;;;;;;;17.59;81.57;95758.31;5110854;28;20044;-73
2021/07/25 03:09:16;;;;;;;13.32;4.90;;;;;;;17.53;81.83;95760.63;5110793;28;20054;-73
2021/07/25 03:11:42;;;;;;;12.02;5.25;;;;;;;17.51;81.97;95762.19;5111647;28;20043;-73
2021/07/25 03:14:09;;;;;;;16.17;5.00;;;;;;;17.44;81.95;95763.72;5111031;28;20047;-72
2021/07/25 03:16:35;;;;;;;14.15;4.47;;;;;;;17.41;82.46;95761.69;5111615;28;20043;-73
2021/07/25 03:19:02;;;;;;;17.67;5.30;;;;;;;17.32;82.81;95760.41;5111171;28;20060;-73
2021/07/25 03:21:30;;;;;;;16.20;5.35;;;;;;;17.25;82.89;95755.63;5110882;28;20430;-73
2021/07/25 03:23:56;;;;;;;17.50;5.28;;;;;;;17.23;83.31;95766.22;5111076;28;20039;-73
2021/07/25 03:26:23;;;;;;;18.75;6.45;;;;;;;17.22;83.38;95762.66;5110403;28;20497;-73
2021/07/25 03:28:49;;;;;;;13.55;6.03;;;;;;;17.23;83.69;95757.97;5111032;28;20058;-73
2021/07/25 03:31:15;;;;;;;20.52;5.38;;;;;;;17.30;83.57;95763.53;5110663;28;20055;-72
2021/07/25 03:33:42;;;;;;;18.20;5.82;;;;;;;17.28;82.80;95760.38;5111240;28;20052;-73
2021/07/25 03:36:08;;;;;;;20.50;5.53;;;;;;;17.28;82.74;95771.38;5110273;28;20052;-72
2021/07/25 03:38:36;;;;;;;20.83;5.63;;;;;;;17.23;83.24;95755.22;5110910;28;20097;-73
2021/07/25 03:41:03;;;;;;;19.85;5.05;;;;;;;17.24;82.99;95748.53;5110908;28;20394;-74
2021/07/25 03:43:31;;;;;;;20.10;5.85;;;;;;;17.23;82.71;95755.22;5110724;28;20164;-75
2021/07/25 03:45:58;;;;;;;20.30;5.63;;;;;;;17.19;82.89;95762.63;5110769;28;20070;-74
2021/07/25 03:48:25;;;;;;;16.25;5.75;;;;;;;17.12;82.79;95765.28;5110323;28;20040;-75
2021/07/25 03:50:52;;;;;;;24.48;5.78;;;;;;;17.17;83.60;95764.94;5111239;28;20047;-75
2021/07/25 03:53:19;;;;;;;16.23;5.65;;;;;;;17.24;83.07;95769.75;5110008;28;20494;-73
2021/07/25 03:55:48;;;;;;;18.45;6.20;;;;;;;17.22;82.94;95757.13;5110829;28;20035;-73
2021/07/25 03:58:14;;;;;;;12.43;5.30;;;;;;;17.24;82.77;95743.03;5110425;28;20546;-73
2021/07/25 04:00:41;;;;;;;13.70;5.57;;;;;;;17.29;83.07;95739.16;5110967;28;20048;-73
2021/07/25 04:03:07;;;;;;;16.58;5.72;;;;;;;17.30;83.38;95736.03;5110449;28;20043;-73
2021/07/25 04:05:34;;;;;;;12.13;5.65;;;;;;;17.34;83.56;95742.38;5110299;28;20059;-73
2021/07/25 04:08:07;;;;;;;16.88;6.18;;;;;;;17.41;83.65;95742.44;5110808;28;20058;-73
2021/07/25 04:10:33;;;;;;;12.38;5.05;;;;;;;17.46;83.61;95755.84;5110817;28;20501;-73
2021/07/25 04:13:01;;;;;;;20.08;6.07;;;;;;;17.50;82.43;95755.91;5110745;28;20048;-75
2021/07/25 04:15:28;;;;;;;13.05;5.65;;;;;;;17.51;81.28;95756.69;5110466;28;20048;-75
2021/07/25 04:17:54;;;;;;;12.55;5.90;;;;;;;17.46;81.44;95761.34;5110845;28;20047;-75
2021/07/25 04:20:20;;;;;;;13.25;5.78;;;;;;;17.39;81.85;95766.78;5112870;28;20055;-75
2021/07/25 04:22:47;;;;;;;14.30;6.13;;;;;;;17.37;82.86;95780.13;5114386;28;20039;-75
2021/07/25 04:25:14;;;;;;;20.42;6.40;;;;;;;17.32;83.39;95783.19;5113775;28;20047;-75
2021/07/25 04:27:41;;;;;;;18.10;6.20;;;;;;;17.28;83.68;95776.88;5113938;28;20051;-75
2021/07/25 04:30:10;;;;;;;13.93;5.82;;;;;;;17.25;84.16;95776.84;5113875;28;20101;-75
2021/07/25 04:32:37;;;;;;;11.75;6.25;;;;;;;17.22;84.87;95772.88;5113998;28;20051;-75
2021/07/25 04:35:07;;;;;;;9.85;5.70;;;;;;;17.23;85.25;95779.97;5113521;28;20524;-75
2021/07/25 04:37:36;;;;;;;14.93;5.88;;;;;;;17.20;84.39;95792.50;5114077;28;20046;-75
2021/07/25 04:40:03;;;;;;;17.05;6.20;;;;;;;17.13;85.00;95786.13;5113847;28;20051;-74
2021/07/25 04:42:34;;;;;;;16.35;6.82;;;;;;;17.06;85.52;95797.03;5114126;28;20047;-75
2021/07/25 04:45:04;;;;;;;12.13;5.25;;;;;;;17.00;85.43;95801.28;5114074;28;20043;-75
2021/07/25 04:47:36;;;;;;;15.07;5.45;;;;;;;16.88;85.71;95805.84;5113658;28;20506;-75
2021/07/25 04:50:06;;;;;;;14.45;5.88;;;;;;;16.83;86.53;95810.88;5113759;28;20097;-72
2021/07/25 04:52:40;;;;;;;14.27;5.72;;;;;;;16.86;87.40;95810.94;5113994;28;20080;-75
2021/07/25 04:55:09;;;;;;;18.13;7.15;;;;;;;16.91;87.39;95807.84;5113648;28;20141;-75
2021/07/25 04:57:41;;;;;;;13.95;5.97;;;;;;;17.00;87.42;95809.53;5113843;28;20044;-75
2021/07/25 05:00:09;;;;;;;17.63;6.63;;;;;;;16.97;86.85;95810.28;5113431;28;20048;-75
2021/07/25 05:02:40;;;;;;;13.00;6.25;;;;;;;17.00;86.71;95804.03;5113940;28;20161;-75
2021/07/25 05:05:07;;;;;;;17.58;6.00;;;;;;;17.01;86.53;95811.91;5113261;28;20040;-73
2021/07/25 05:07:36;;;;;;;16.20;5.97;;;;;;;17.03;86.32;95819.78;5113570;28;20501;-75
2021/07/25 05:10:03;;;;;;;15.27;6.20;;;;;;;16.93;86.93;95827.53;5113102;28;20048;-74
2021/07/25 05:12:33;;;;;;;14.43;6.15;;;;;;;16.90;87.33;95843.97;5113637;28;20050;-75
2021/07/25 05:15:04;;;;;;;12.50;5.78;;;;;;;16.92;87.68;95830.66;5113502;28;20050;-75
2021/07/25 05:17:37;;;;;;;18.13;5.95;;;;;;;16.89;87.26;95826.66;5113332;28;20053;-75
2021/07/25 05:20:06;;;;;;;13.43;5.82;;;;;;;16.93;87.12;95827.53;5113258;28;20070;-75
2021/07/25 05:22:40;;;;;;;12.60;5.47;;;;;;;17.01;87.29;95827.59;5113618;28;20047;-75
2021/07/25 05:25:08;;;;;;;14.23;5.68;;;;;;;17.06;87.60;95819.81;5112931;28;20047;-74
2021/07/25 05:27:42;;;;;;;10.95;4.97;;;;;;;17.15;87.95;95823.09;5113077;28;20524;-75
2021/07/25 05:30:10;;;;;;;12.13;6.25;;;;;;;17.26;87.67;95822.44;5112379;28;20051;-75
2021/07/25 05:32:36;;;;;;;15.52;6.00;;;;;;;17.28;87.75;95809.09;5112602;28;20040;-75
2021/07/25 05:35:05;;;;;;;13.13;6.22;;;;;;;17.35;87.87;95800.94;5111841;28;20054;-74
2021/07/25 05:37:32;;;;;;;12.27;6.05;;;;;;;17.36;87.37;95784.03;5113276;28;20066;-75
2021/07/25 05:39:58;;;;;;;14.32;6.05;;;;;;;17.39;86.80;95774.25;5113086;28;20124;-75
2021/07/25 05:42:25;;;;;;;12.57;5.70;;;;;;;17.43;86.75;95773.09;5112787;28;20424;-75
2021/07/25 05:44:51;;;;;;;14.75;5.93;;;;;;;17.43;86.81;95778.59;5112835;28;20093;-75
2021/07/25 05:47:18;;;;;;;12.68;6.57;;;;;;;17.45;87.48;95792.81;5112526;28;20406;-75
2021/07/25 05:49:44;;;;;;;14.75;5.88;;;;;;;17.52;87.85;95818.81;5112647;28;20040;-75
2021/07/25 05:52:12;;;;;;;11.77;5.93;;;;;;;17.43;86.89;95828.16;5112467;28;20047;-75
2021/07/25 05:54:38;;;;;;;15.07;6.05;;;;;;;17.37;87.86;95832.41;5112957;28;20546;-75
2021/07/25 05:57:05;;;;;;;14.32;7.18;;;;;;;17.34;87.75;95821.38;5112319;28;20048;-75
2021/07/25 05:59:31;;;;;;;11.55;5.93;;;;;;;17.39;88.25;95824.59;5112640;28;20048;-73
2021/07/25 06:02:01;;;;;;;15.50;7.18;;;;;;;17.42;87.86;95826.56;5112863;28;20036;-75
2021/07/25 06:04:27;;;;;;;14.57;6.97;;;;;;;17.47;87.14;95823.50;5112157;28;20071;-75
2021/07/25 06:06:54;;;;;;;16.00;6.68;;;;;;;17.52;87.49;95819.63;5112336;28;20044;-73
2021/07/25 06:09:22;;;;;;;12.90;6.38;;;;;;;17.66;87.88;95807.97;5112093;28;20097;-73
2021/07/25 06:11:49;;;;;;;13.57;6.55;;;;;;;17.83;88.22;95817.63;5112620;28;20054;-74
2021/07/25 06:14:15;;;;;;;12.13;6.50;;;;;;;17.87;87.03;95819.25;5112019;28;20114;-75
2021/07/25 06:16:42;;;;;;;12.55;5.75;;;;;;;17.85;84.10;95821.56;5112398;28;20043;-75
2021/07/25 06:19:08;;;;;;;11.30;6.00;;;;;;;17.90;84.25;95828.69;5111949;28;20048;-74
2021/07/25 06:21:35;;;;;;;13.75;6.35;;;;;;;18.00;84.76;95823.28;5111328;28;20131;-75
2021/07/25 06:24:01;;;;;;;14.48;7.00;;;;;;;18.09;84.66;95820.25;5111986;28;20054;-75
2021/07/25 06:26:30;;;;;;;12.68;6.25;;;;;;;18.20;85.01;95831.34;5111652;28;20049;-75
2021/07/25 06:28:56;;;;;;;11.45;6.45;;;;;;;18.19;81.95;95840.81;5112026;28;20044;-75
2021/07/25 06:31:22;;;;;;;11.80;5.95;;;;;;;18.23;82.40;95836.13;5111391;28;20457;-75
2021/07/25 06:33:49;;;;;;;9.45;5.93;;;;;;;18.28;81.97;95840.50;5112220;28;20093;-75
2021/07/25 06:36:15;;;;;;;17.05;6.10;;;;;;;18.34;82.15;95847.25;5110971;28;20050;-75
2021/07/25 06:38:42;;;;;;;13.65;7.22;;;;;;;18.38;82.75;95843.34;5111208;28;20047;-74
2021/07/25 06:41:09;;;;;;;18.90;6.13;;;;;;;18.41;82.66;95842.56;5111326;28;20050;-72
2021/07/25 06:43:38;;;;;;;11.35;6.20;;;;;;;18.45;83.01;95837.09;5111540;28;20048;-73
2021/07/25 06:46:04;;;;;;;10.93;5.82;;;;;;;18.55;82.91;95835.59;5111329;28;20391;-72
2021/07/25 06:48:32;;;;;;;11.30;5.63;;;;;;;18.65;82.14;95823.88;5111522;28;20055;-72
2021/07/25 06:50:59;;;;;;;10.73;5.90;;;;;;;18.73;82.41;95820.00;5111793;28;20068;-73
2021/07/25 06:53:28;;;;;;;14.65;5.80;;;;;;;18.86;82.73;95824.03;5111201;28;20068;-73
2021/07/25 06:55:59;;;;;;;14.10;5.72;;;;;;;18.99;81.78;95822.53;5111548;28;20048;-73
2021/07/25 06:58:25;;;;;;;14.10;5.65;;;;;;;19.09;81.49;95814.69;5110849;28;20051;-73
2021/07/25 07:00:53;;;;;;;11.55;6.13;;;;;;;19.18;81.56;95813.19;5111460;28;20047;-73
2021/07/25 07:03:20;;;;;;;9.73;5.18;;;;;;;19.33;81.29;95816.81;5110555;28;20043;-74
2021/07/25 07:05:48;;;;;;;9.77;5.18;;;;;;;19.45;79.12;95826.69;5111196;28;20039;-73
2021/07/25 07:08:14;;;;;;;15.07;5.28;;;;;;;19.51;79.28;95811.34;5109389;28;20040;-72
2021/07/25 07:10:43;;;;;;;12.25;5.07;;;;;;;19.58;78.31;95808.63;5111054;28;20047;-73
2021/07/25 07:13:11;;;;;;;7.35;4.47;;;;;;;19.61;78.23;95807.06;5111120;28;20035;-73
2021/07/25 07:15:39;;;;;;;12.43;4.88;;;;;;;19.65;78.19;95791.31;5111539;28;20047;-72
2021/07/25 07:18:07;;;;;;;10.82;5.05;;;;;;;19.72;78.46;95794.06;5110726;28;20055;-72
2021/07/25 07:20:34;;;;;;;12.60;5.63;;;;;;;19.79;77.54;95791.34;5093539;28;20039;-72
2021/07/25 07:23:03;;;;;;;11.95;7.97;;;;;;;19.86;76.95;95783.06;5109801;28;20050;-73
2021/07/25 07:25:31;;;;;;;11.20;4.95;;;;;;;19.93;77.37;95785.03;5111011;28;20039;-72
2021/07/25 07:27:58;;;;;;;11.32;4.78;;;;;;;19.97;75.97;95789.41;5110244;28;20413;-74
2021/07/25 07:30:25;;;;;;;10.35;5.53;;;;;;;20.05;76.89;95784.69;5110597;28;20044;-74
2021/07/25 07:32:52;;;;;;;10.88;5.13;;;;;;;20.13;76.05;95785.47;5111208;28;20051;-74
2021/07/25 07:35:23;;;;;;;6.40;4.45;;;;;;;20.23;76.18;95792.97;5110308;28;20070;-74
2021/07/25 07:37:50;;;;;;;11.18;5.28;;;;;;;20.42;76.48;95789.03;5111160;28;20051;-74
2021/07/25 07:40:17;;;;;;;11.23;4.65;;;;;;;20.53;74.85;95787.88;5110560;28;20055;-74
2021/07/25 07:42:44;;;;;;;7.15;4.22;;;;;;;20.68;73.77;95788.66;5110479;28;20126;-74
2021/07/25 07:45:11;;;;;;;8.60;4.47;;;;;;;20.81;73.93;95791.78;5110316;28;20044;-74
2021/07/25 07:47:38;;;;;;;10.23;3.92;;;;;;;20.98;72.87;95790.94;5111100;28;20047;-74
2021/07/25 07:50:05;;;;;;;9.13;4.75;;;;;;;21.01;71.07;95784.63;5110388;28;20393;-74
2021/07/25 07:52:33;;;;;;;9.35;4.72;;;;;;;21.00;71.38;95785.03;5110825;28;20043;-74
2021/07/25 07:54:59;;;;;;;9.63;4.80;;;;;;;20.99;71.86;95777.94;5113273;28;20064;-74
2021/07/25 07:57:26;;;;;;;9.60;5.45;;;;;;;21.00;71.71;95780.28;5113979;28;20056;-75
2021/07/25 07:59:52;;;;;;;9.07;4.68;;;;;;;21.06;72.23;95783.44;5114973;28;20050;-75
2021/07/25 08:02:19;;;;;;;8.90;5.30;;;;;;;21.06;72.03;95792.53;5114470;28;20494;-74
2021/07/25 08:04:45;;;;;;;9.18;5.22;;;;;;;21.18;71.64;95790.50;5115109;28;20066;-75
2021/07/25 08:07:12;;;;;;;8.52;4.75;;;;;;;21.35;71.14;95789.69;5113924;28;20040;-74
2021/07/25 08:09:39;;;;;;;5.38;3.90;;;;;;;21.65;68.13;95786.38;5114944;28;20409;-75
2021/07/25 08:12:07;;;;;;;10.98;3.90;;;;;;;22.50;68.48;95795.34;5114130;28;20539;-74
2021/07/25 08:14:34;;;;;;;9.88;3.90;;;;;;;23.32;63.03;95800.13;5114706;28;20040;-74
2021/07/25 08:17:00;;;;;;;7.53;4.03;;;;;;;23.71;60.76;95805.25;5114306;28;20043;-74
2021/07/25 08:19:27;;;;;;;9.43;4.20;;;;;;;23.67;60.03;95802.50;5112617;28;20776;-74
2021/07/25 08:21:54;;;;;;;6.63;3.50;;;;;;;24.32;59.79;95807.94;5114098;28;20671;-75
2021/07/25 08:24:20;;;;;;;8.77;3.80;;;;;;;24.69;58.25;95812.56;5113959;28;20055;-76
2021/07/25 08:26:48;;;;;;;7.47;3.42;;;;;;;24.95;54.57;95812.91;5114433;28;20050;-75
2021/07/25 08:29:14;;;;;;;8.55;4.22;;;;;;;24.78;55.98;95819.56;5114076;28;20059;-75
2021/07/25 08:31:41;;;;;;;10.32;3.70;;;;;;;24.97;55.88;95822.41;5114499;28;20046;-75
2021/07/25 08:34:07;;;;;;;9.18;3.40;;;;;;;25.65;53.28;95835.09;5113800;28;20043;-74
2021/07/25 08:36:34;;;;;;;5.78;3.45;;;;;;;26.22;52.46;95833.91;5113889;28;20050;-75
2021/07/25 08:39:00;;;;;;;11.65;4.07;;;;;;;26.07;51.31;95838.25;5114161;28;20052;-74
2021/07/25 08:41:44;;;;;;;10.25;3.47;;;;;;;25.51;53.47;95843.75;5113914;28;20039;-74
2021/07/25 08:44:37;;;;;;;10.30;3.60;;;;;;;24.92;54.30;95836.06;5113442;28;20070;-75
2021/07/25 08:47:16;;;;;;;7.13;3.60;;;;;;;24.60;56.69;95845.72;5093136;28;20051;-74
2021/07/25 08:49:49;;;;;;;6.63;4.00;;;;;;;24.50;59.36;95848.66;5093642;28;20044;-75
2021/07/25 08:52:18;;;;;;;6.00;3.45;;;;;;;24.29;57.74;95860.88;5093194;28;20048;-74
2021/07/25 08:54:45;;;;;;;5.82;3.28;;;;;;;23.81;56.34;95856.38;5093594;28;20040;-75
2021/07/25 08:57:14;;;;;;;4.88;2.75;;;;;;;23.53;57.96;95855.44;5092888;28;20044;-74
2021/07/25 08:59:44;;;;;;;6.30;3.40;;;;;;;23.23;59.22;95852.59;5093181;28;20047;-75
2021/07/25 09:02:22;;;;;;;10.07;3.20;;;;;;;23.10;60.88;95844.81;5092984;28;20048;-75
2021/07/25 09:04:51;;;;;;;10.05;3.88;;;;;;;22.98;61.59;95833.44;5093015;28;20075;-74
2021/07/25 09:07:19;;;;;;;6.90;3.58;;;;;;;23.00;63.73;95823.47;5112923;28;20080;-77
2021/07/25 09:09:47;;;;;;;8.52;4.30;;;;;;;23.64;63.66;95828.34;5111952;28;20055;-76
2021/07/25 09:12:16;;;;;;;6.40;3.20;;;;;;;24.59;62.63;95819.09;5113186;28;20055;-75
2021/07/25 09:14:46;;;;;;;5.72;3.10;;;;;;;24.94;56.85;95823.25;5113540;28;20048;-75
2021/07/25 09:17:14;;;;;;;7.85;3.88;;;;;;;24.89;56.80;95820.19;5113141;28;20051;-74
2021/07/25 09:20:13;;;;;;;8.90;3.58;;;;;;;24.88;55.98;95821.41;5095239;28;20486;-74
2021/07/25 09:22:53;;;;;;;8.60;3.85;;;;;;;24.81;56.27;95815.97;5094911;28;20043;-75
2021/07/25 09:25:28;;;;;;;7.38;3.92;;;;;;;24.61;55.27;95816.66;5112804;28;20050;-74
2021/07/25 09:28:27;;;;;;;6.95;3.40;;;;;;;24.46;57.08;95815.31;5094965;28;20078;-75
2021/07/25 09:30:56;;;;;;;6.43;3.35;;;;;;;24.40;56.43;95808.66;5113030;28;20039;-74
2021/07/25 09:33:28;;;;;;;7.55;3.47;;;;;;;24.28;55.48;95809.22;5077458;28;20087;-76
2021/07/25 09:36:03;;;;;;;7.90;3.95;;;;;;;23.80;58.56;95797.16;5093548;28;20043;-74
2021/07/25 09:38:30;;;;;;;8.73;3.85;;;;;;;23.58;58.52;95812.53;5112588;28;20039;-73
2021/07/25 09:40:57;;;;;;;7.70;3.75;;;;;;;23.46;60.73;95808.31;5112989;28;20058;-73
2021/07/25 09:43:24;;;;;;;7.13;3.88;;;;;;;23.35;61.35;95815.97;5112384;28;20490;-73
2021/07/25 09:45:57;;;;;;;8.48;3.70;;;;;;;23.24;61.89;95799.44;5112823;28;20051;-73
2021/07/25 09:48:26;;;;;;;10.48;4.45;;;;;;;23.19;62.36;95799.88;5112236;28;20044;-73
2021/07/25 09:50:55;;;;;;;6.68;3.85;;;;;;;23.09;62.46;95793.25;5112656;28;20426;-73
2021/07/25 09:53:21;;;;;;;8.35;4.43;;;;;;;23.07;63.00;95789.28;5112097;28;20039;-73
2021/07/25 09:55:49;;;;;;;7.85;3.78;;;;;;;23.03;64.20;95786.56;5112723;28;20035;-73
2021/07/25 09:58:15;;;;;;;10.60;3.75;;;;;;;23.00;63.17;95787.38;5111865;28;20047;-73
2021/07/25 10:00:43;;;;;;;6.13;3.88;;;;;;;23.00;63.04;95790.16;5112623;28;20054;-74
2021/07/25 10:03:24;;;;;;;10.57;3.83;;;;;;;22.94;62.46;95802.91;5112005;28;20651;-73
2021/07/25 10:05:51;;;;;;;7.80;3.67;;;;;;;22.88;63.48;95793.47;5112114;28;20040;-73
2021/07/25 10:08:20;;;;;;;7.82;3.83;;;;;;;22.88;64.15;95804.56;5112159;28;20078;-73
2021/07/25 10:10:48;;;;;;;9.07;4.10;;;;;;;22.92;64.99;95799.78;5112269;28;20071;-74
2021/07/25 10:13:16;;;;;;;7.80;4.05;;;;;;;22.95;65.60;95796.16;5111762;28;20047;-74
2021/07/25 10:15:46;;;;;;;8.00;4.43;;;;;;;22.99;64.54;95794.13;5099351;28;20410;-74
2021/07/25 10:18:14;;;;;;;7.65;4.18;;;;;;;23.05;65.03;95789.72;5090277;28;20052;-73
2021/07/25 10:20:43;;;;;;;7.30;3.80;;;;;;;23.16;63.24;95787.59;5091463;28;20509;-74
2021/07/25 10:23:11;;;;;;;9.88;4.90;;;;;;;23.19;63.49;95783.22;5103807;28;20516;-74
2021/07/25 10:25:37;;;;;;;8.90;4.50;;;;;;;23.26;63.70;95774.78;5108058;28;20047;-74
2021/07/25 10:28:07;;;;;;;8.93;3.92;;;;;;;23.26;61.35;95771.22;5107588;28;20048;-75
2021/07/25 10:30:34;;;;;;;8.88;3.83;;;;;;;23.29;61.72;95759.31;5108737;28;20055;-74
2021/07/25 10:33:00;;;;;;;8.30;4.30;;;;;;;23.32;61.06;95747.34;5108097;28;20433;-74
2021/07/25 10:35:29;;;;;;;9.82;4.30;;;;;;;23.33;62.59;95737.81;5107695;28;20071;-74
2021/07/25 10:38:01;;;;;;;8.85;4.05;;;;;;;23.34;61.72;95748.53;5108411;28;20043;-75
2021/07/25 10:40:29;;;;;;;11.35;5.43;;;;;;;23.37;61.77;95746.88;5108102;28;20074;-74
2021/07/25 10:42:55;;;;;;;11.98;4.95;;;;;;;23.36;61.11;95746.09;5107896;28;20048;-74
2021/07/25 10:45:22;;;;;;;10.82;5.28;;;;;;;23.40;60.51;95746.84;5106894;28;21767;-74
2021/07/25 10:47:49;;;;;;;11.30;4.72;;;;;;;23.41;60.80;95742.88;5108020;28;20061;-75
2021/07/25 10:50:20;;;;;;;10.85;4.88;;;;;;;23.36;59.80;95729.44;5107824;28;20055;-75
2021/07/25 10:53:03;;;;;;;9.10;4.65;;;;;;;23.38;62.61;95726.22;5108130;28;20130;-75
2021/07/25 10:55:50;;;;;;;9.63;4.53;;;;;;;23.48;62.32;95728.09;5108373;28;20466;-75
2021/07/25 10:58:18;;;;;;;14.40;4.68;;;;;;;23.56;62.45;95720.44;5107264;28;20040;-75
2021/07/25 11:00:49;;;;;;;11.18;4.53;;;;;;;23.65;60.07;95713.19;5107933;28;20051;-75
2021/07/25 11:03:44;;;;;;;7.35;3.90;;;;;;;23.73;60.36;95721.44;5107300;28;20051;-75
2021/07/25 11:06:17;;;;;;;11.00;4.63;;;;;;;23.81;61.69;95714.56;5106776;28;20052;-75
2021/07/25 11:08:46;;;;;;;;;;;;;;;23.92;61.52;95715.97;5108431;28;20040;-75
2021/07/25 11:11:52;;;;;;;9.85;4.40;;;;;;;23.94;59.12;95710.00;5107291;28;19967;-74
2021/07/25 11:15:05;;;;;;;9.43;4.75;;;;;;;23.98;60.35;95702.38;5107198;28;20447;-74
2021/07/25 11:17:51;;;;;;;9.88;4.47;;;;;;;24.08;61.05;95700.66;5107655;28;20040;-74
2021/07/25 11:20:56;;;;;;;9.48;4.20;;;;;;;24.17;59.03;95703.66;5107665;28;20048;-74
2021/07/25 11:23:37;;;;;;;8.65;4.18;;;;;;;24.29;57.15;95714.19;5107195;28;20051;-74
2021/07/25 11:26:32;;;;;;;10.90;5.05;;;;;;;24.43;60.41;95711.22;5106911;28;20043;-73
2021/07/25 11:29:00;;;;;;;11.10;5.00;;;;;;;24.60;58.34;95714.88;5110132;28;20434;-74
2021/07/25 11:31:37;;;;;;;9.45;4.28;;;;;;;24.76;57.82;95719.00;5101494;28;20048;-74
2021/07/25 11:34:06;;;;;;;7.18;3.78;;;;;;;24.85;57.64;95713.63;5094724;28;20048;-73
2021/07/25 11:36:33;;;;;;;13.13;5.22;;;;;;;24.90;56.02;95710.34;5108524;28;20044;-73
2021/07/25 11:39:01;;;;;;;8.48;4.20;;;;;;;24.89;57.43;95717.13;5114301;28;20051;-73